Time;durP1;ratioP1;P1;durP2;ratioP2;P2;SDS_P1;SDS_P2;PMS_P1;PMS_P2;Temp;Humidity;BMP_temperature;BMP_pressure;BME280_temperature;BME280_humidity;BME280_pressure;Samples;Min_cycle;Max_cycle;Signal;HPM_P1;HPM_P2
2021/12/14 00:00:34;;;;;;;19.98;10.77;;;;;;;;;;4865380;29;20117;-58
2021/12/14 00:03:00;;;;;;;18.40;10.93;;;;;;;;;;4866952;29;20513;-57
2021/12/14 00:05:29;;;;;;;16.88;10.80;;;;;;;;;;4865501;29;20025;-61
2021/12/14 00:07:57;;;;;;;15.85;10.60;;;;;;;;;;4867544;29;20502;-55
2021/12/14 00:13:03;;;;;;;21.70;11.18;;;;;;;;;;4869257;29;20393;-58
2021/12/14 00:15:28;;;;;;;18.80;11.13;;;;;;;;;;4870578;29;20430;-59
2021/12/14 00:18:01;;;;;;;17.75;10.85;;;;;;;;;;4869671;29;20099;-61
2021/12/14 00:20:31;;;;;;;18.23;11.13;;;;;;;;;;4869814;29;20069;-61
2021/12/14 00:25:32;;;;;;;18.67;10.73;;;;;;;;;;4872356;29;20061;-61
2021/12/14 00:28:01;;;;;;;18.90;9.30;;;;;;;;;;4870793;29;20521;-58
2021/12/14 00:30:26;;;;;;;16.77;9.40;;;;;;;;;;4869622;29;20029;-56
2021/12/14 00:32:52;;;;;;;16.08;9.30;;;;;;;;;;4870137;29;20058;-60
2021/12/14 00:35:20;;;;;;;18.17;9.27;;;;;;;;;;4868345;29;20064;-59
2021/12/14 00:37:53;;;;;;;13.77;8.68;;;;;;;;;;4866618;29;20093;-61
2021/12/14 00:40:25;;;;;;;;;;;;;;;;;;4869202;29;20041;-57
2021/12/14 00:42:52;;;;;;;15.25;8.23;;;;;;;;;;4871200;29;19915;-59
2021/12/14 00:45:19;;;;;;;15.15;9.57;;;;;;;;;;4867752;29;20101;-62
2021/12/14 00:47:45;;;;;;;14.65;9.07;;;;;;;;;;4870087;29;20072;-59
2021/12/14 00:50:10;;;;;;;17.92;9.50;;;;;;;;;;4869658;29;20458;-62
2021/12/14 00:52:37;;;;;;;20.20;9.25;;;;;;;;;;4871017;29;20055;-61
2021/12/14 00:55:06;;;;;;;20.05;9.63;;;;;;;;;;4867539;29;20096;-60
2021/12/14 01:00:11;;;;;;;17.85;9.40;;;;;;;;;;4139791;23;20351;-51
2021/12/14 01:02:38;;;;;;;15.05;9.02;;;;;;;;;;4867862;29;20502;-58
2021/12/14 01:05:21;;;;;;;15.95;8.80;;;;;;;;;;4868243;29;20337;-54
2021/12/14 01:07:48;;;;;;;;;;;;;;;;;;4866018;29;20037;-53
2021/12/14 01:10:22;;;;;;;14.52;8.68;;;;;;;;;;4864316;29;20041;-50
2021/12/14 01:12:52;;;;;;;19.73;9.35;;;;;;;;;;4866024;29;20076;-51
2021/12/14 01:18:28;;;;;;;13.90;8.57;;;;;;;;;;4863954;29;20505;-52
2021/12/14 01:21:00;;;;;;;14.90;8.57;;;;;;;;;;4867452;29;20033;-51
2021/12/14 01:23:31;;;;;;;14.68;8.63;;;;;;;;;;4865688;29;20375;-50
2021/12/14 01:26:03;;;;;;;14.52;8.95;;;;;;;;;;4867062;29;20514;-52
2021/12/14 01:28:30;;;;;;;14.82;8.80;;;;;;;;;;4866774;29;20410;-52
2021/12/14 01:31:12;;;;;;;18.05;9.32;;;;;;;;;;4864412;29;20104;-56
2021/12/14 01:33:41;;;;;;;15.88;9.52;;;;;;;;;;4867781;29;20468;-56
2021/12/14 01:36:22;;;;;;;16.88;9.52;;;;;;;;;;4868662;29;20032;-56
2021/12/14 01:39:08;;;;;;;17.80;10.20;;;;;;;;;;4866283;29;20426;-50
2021/12/14 01:41:34;;;;;;;16.73;8.93;;;;;;;;;;4866417;29;20059;-53
2021/12/14 01:43:59;;;;;;;17.92;9.38;;;;;;;;;;4863616;29;20033;-54
2021/12/14 01:46:29;;;;;;;16.17;9.13;;;;;;;;;;4864152;29;20032;-52
2021/12/14 01:48:55;;;;;;;16.45;8.88;;;;;;;;;;4867437;29;20025;-50
2021/12/14 01:51:22;;;;;;;18.63;9.85;;;;;;;;;;4864580;29;20047;-51
2021/12/14 01:53:51;;;;;;;22.55;10.25;;;;;;;;;;4866829;29;20032;-53
2021/12/14 01:56:26;;;;;;;24.30;10.05;;;;;;;;;;4864467;29;20056;-50
2021/12/14 01:58:56;;;;;;;15.98;9.57;;;;;;;;;;4866040;29;20030;-55
2021/12/14 02:01:28;;;;;;;17.15;9.00;;;;;;;;;;4864747;29;20047;-52
2021/12/14 02:03:57;;;;;;;17.55;8.95;;;;;;;;;;4867623;29;20035;-56
2021/12/14 02:06:30;;;;;;;21.40;10.18;;;;;;;;;;4867361;29;20401;-55
2021/12/14 02:09:00;;;;;;;15.77;9.32;;;;;;;;;;4867043;29;20067;-54
2021/12/14 02:11:34;;;;;;;18.50;9.25;;;;;;;;;;4864763;29;20056;-54
2021/12/14 02:14:01;;;;;;;16.38;9.77;;;;;;;;;;4866995;29;20539;-54
2021/12/14 02:16:26;;;;;;;22.52;9.68;;;;;;;;;;4865698;29;20039;-52
2021/12/14 02:19:04;;;;;;;16.55;9.40;;;;;;;;;;4863051;29;20029;-53
2021/12/14 02:21:30;;;;;;;17.77;9.65;;;;;;;;;;4866337;29;20068;-54
2021/12/14 02:23:58;;;;;;;15.00;9.15;;;;;;;;;;4864427;29;20049;-52
2021/12/14 02:26:29;;;;;;;19.70;9.60;;;;;;;;;;4865827;29;20037;-50
2021/12/14 02:28:56;;;;;;;17.10;8.77;;;;;;;;;;4863767;29;20032;-52
2021/12/14 02:31:24;;;;;;;14.75;9.18;;;;;;;;;;4867318;29;20034;-51
2021/12/14 02:33:52;;;;;;;13.43;8.88;;;;;;;;;;4864408;29;20056;-56
2021/12/14 02:36:22;;;;;;;14.27;8.65;;;;;;;;;;4866227;29;20033;-53
2021/12/14 02:38:53;;;;;;;17.70;9.30;;;;;;;;;;4866739;29;20215;-50
2021/12/14 02:41:18;;;;;;;19.58;8.88;;;;;;;;;;4866467;29;20056;-55
2021/12/14 02:43:47;;;;;;;16.73;8.88;;;;;;;;;;4864018;29;20040;-55
2021/12/14 02:46:15;;;;;;;13.82;8.25;;;;;;;;;;4864353;29;20484;-53
2021/12/14 02:48:43;;;;;;;14.77;8.57;;;;;;;;;;4862346;29;20115;-53
2021/12/14 02:51:34;;;;;;;14.13;8.43;;;;;;;;;;4864644;29;20452;-55
2021/12/14 02:54:06;;;;;;;16.48;8.77;;;;;;;;;;4866382;29;20044;-51
2021/12/14 02:56:34;;;;;;;18.67;8.45;;;;;;;;;;4863826;29;20033;-53
2021/12/14 02:59:06;;;;;;;15.63;9.20;;;;;;;;;;4864214;29;20512;-56
2021/12/14 03:01:33;;;;;;;16.65;8.90;;;;;;;;;;4866311;29;20039;-56
2021/12/14 03:04:01;;;;;;;18.08;9.02;;;;;;;;;;4867233;29;20044;-52
2021/12/14 03:06:27;;;;;;;14.73;8.45;;;;;;;;;;4865138;29;20028;-51
2021/12/14 03:09:19;;;;;;;12.90;8.52;;;;;;;;;;4866192;29;20033;-50
2021/12/14 03:11:45;;;;;;;14.00;9.00;;;;;;;;;;4866153;29;20135;-50
2021/12/14 03:14:11;;;;;;;15.40;8.27;;;;;;;;;;4862153;29;20116;-54
2021/12/14 03:16:38;;;;;;;17.45;8.88;;;;;;;;;;4863501;29;20037;-51
2021/12/14 03:19:08;;;;;;;17.67;9.10;;;;;;;;;;4859915;29;20032;-54
2021/12/14 03:21:40;;;;;;;15.02;8.43;;;;;;;;;;4862094;29;20037;-54
2021/12/14 03:24:11;;;;;;;13.60;8.43;;;;;;;;;;4862713;29;20804;-51
2021/12/14 03:26:42;;;;;;;15.18;8.90;;;;;;;;;;4866587;29;20029;-51
2021/12/14 03:29:16;;;;;;;16.92;8.63;;;;;;;;;;4865995;29;20069;-54
2021/12/14 03:31:45;;;;;;;13.20;8.32;;;;;;;;;;4865113;29;20347;-51
2021/12/14 03:34:18;;;;;;;17.50;9.07;;;;;;;;;;4861770;29;20044;-53
2021/12/14 03:36:57;;;;;;;15.85;8.07;;;;;;;;;;4866816;29;20021;-51
2021/12/14 03:39:25;;;;;;;14.23;8.50;;;;;;;;;;4865179;29;20052;-50
2021/12/14 03:42:05;;;;;;;22.27;8.95;;;;;;;;;;4863328;29;20028;-56
2021/12/14 03:44:37;;;;;;;15.85;9.10;;;;;;;;;;4862611;29;20048;-53
2021/12/14 03:47:17;;;;;;;16.27;9.45;;;;;;;;;;4861480;29;20044;-51
2021/12/14 03:49:47;;;;;;;14.95;8.77;;;;;;;;;;4865241;29;20033;-51
2021/12/14 03:52:16;;;;;;;16.98;8.85;;;;;;;;;;4864566;29;20512;-53
2021/12/14 03:54:41;;;;;;;17.05;8.82;;;;;;;;;;4863709;29;20072;-52
2021/12/14 03:57:07;;;;;;;15.63;8.90;;;;;;;;;;4864382;29;20053;-51
2021/12/14 03:59:34;;;;;;;13.95;9.40;;;;;;;;;;4866854;29;20037;-51
2021/12/14 04:02:03;;;;;;;15.15;8.68;;;;;;;;;;4863635;29;20147;-51
2021/12/14 04:04:36;;;;;;;13.07;9.05;;;;;;;;;;4866388;29;20033;-50
2021/12/14 04:07:06;;;;;;;18.92;10.00;;;;;;;;;;4866468;29;20033;-51
2021/12/14 04:09:35;;;;;;;15.32;8.88;;;;;;;;;;4863475;29;20138;-53
2021/12/14 04:12:02;;;;;;;17.70;9.38;;;;;;;;;;4865086;29;21112;-53
2021/12/14 04:14:29;;;;;;;16.20;8.93;;;;;;;;;;4861988;29;21767;-51
2021/12/14 04:16:57;;;;;;;16.50;8.40;;;;;;;;;;4861635;29;20036;-50
2021/12/14 04:19:27;;;;;;;17.52;9.05;;;;;;;;;;4864149;29;20033;-53
2021/12/14 04:21:56;;;;;;;19.70;8.77;;;;;;;;;;4862601;29;20033;-50
2021/12/14 04:24:26;;;;;;;16.83;8.85;;;;;;;;;;4862698;29;20586;-52
2021/12/14 04:26:52;;;;;;;15.52;8.77;;;;;;;;;;4863978;29;20434;-55
2021/12/14 04:29:19;;;;;;;15.95;9.02;;;;;;;;;;4864626;29;20139;-55
2021/12/14 04:31:46;;;;;;;14.70;9.02;;;;;;;;;;4865498;29;20059;-52
2021/12/14 04:34:14;;;;;;;14.77;9.02;;;;;;;;;;4864312;29;20028;-55
2021/12/14 04:36:42;;;;;;;15.80;8.45;;;;;;;;;;4862954;29;20021;-56
2021/12/14 04:53:10;;;;;;;16.83;10.52;;;;;;;;;;4862228;29;20048;-55
2021/12/14 04:55:36;;;;;;;18.30;8.95;;;;;;;;;;4863426;29;20120;-55
2021/12/14 04:58:02;;;;;;;15.32;8.82;;;;;;;;;;4863962;29;20033;-52
2021/12/14 05:00:34;;;;;;;15.07;8.68;;;;;;;;;;4868111;29;20045;-56
2021/12/14 05:03:04;;;;;;;16.10;9.10;;;;;;;;;;4866590;29;20029;-54
2021/12/14 05:05:39;;;;;;;16.17;9.63;;;;;;;;;;4864110;29;20063;-53
2021/12/14 05:10:40;;;;;;;18.08;10.05;;;;;;;;;;4868772;29;20037;-53
2021/12/14 05:13:06;;;;;;;19.58;10.20;;;;;;;;;;4868987;29;20044;-53
2021/12/14 05:15:35;;;;;;;18.13;10.15;;;;;;;;;;4866820;29;20082;-53
2021/12/14 05:18:01;;;;;;;19.10;10.07;;;;;;;;;;4865042;29;20082;-53
2021/12/14 05:20:27;;;;;;;20.23;10.05;;;;;;;;;;4865934;29;21045;-52
2021/12/14 05:22:52;;;;;;;16.58;10.60;;;;;;;;;;4863585;29;20145;-53
2021/12/14 05:25:21;;;;;;;16.60;9.65;;;;;;;;;;4863598;29;20600;-53
2021/12/14 05:27:52;;;;;;;14.70;9.82;;;;;;;;;;4866546;29;20041;-53
2021/12/14 05:30:30;;;;;;;19.40;10.73;;;;;;;;;;4867281;29;20121;-54
2021/12/14 05:33:06;;;;;;;18.10;10.52;;;;;;;;;;4864409;29;20036;-51
2021/12/14 05:35:32;;;;;;;17.88;9.93;;;;;;;;;;4865405;29;20029;-57
2021/12/14 05:37:59;;;;;;;17.25;10.88;;;;;;;;;;4865607;29;20038;-50
2021/12/14 05:43:30;;;;;;;17.45;10.60;;;;;;;;;;4865116;29;20033;-54
2021/12/14 05:46:00;;;;;;;16.85;10.35;;;;;;;;;;4863156;29;20073;-54
2021/12/14 05:48:29;;;;;;;17.77;10.02;;;;;;;;;;4867032;29;20036;-51
2021/12/14 05:50:58;;;;;;;20.95;10.32;;;;;;;;;;4865031;29;20119;-54
2021/12/14 05:53:33;;;;;;;17.20;9.98;;;;;;;;;;4865155;29;20041;-53
2021/12/14 05:56:01;;;;;;;21.15;10.68;;;;;;;;;;4867591;29;20120;-53
2021/12/14 05:58:28;;;;;;;16.80;10.32;;;;;;;;;;4861754;29;20409;-55
2021/12/14 06:00:58;;;;;;;18.58;11.32;;;;;;;;;;4866851;29;20073;-53
2021/12/14 06:03:28;;;;;;;18.63;10.90;;;;;;;;;;4864237;29;20108;-49
2021/12/14 06:05:55;;;;;;;21.33;11.55;;;;;;;;;;4867495;29;20029;-51
2021/12/14 06:08:25;;;;;;;20.77;11.75;;;;;;;;;;4867214;29;20033;-53
2021/12/14 06:10:52;;;;;;;19.52;11.50;;;;;;;;;;4866032;29;20036;-50
2021/12/14 06:13:18;;;;;;;16.73;11.43;;;;;;;;;;4866508;29;20132;-51
2021/12/14 06:15:45;;;;;;;17.88;10.90;;;;;;;;;;4867215;29;20375;-54
2021/12/14 06:18:12;;;;;;;21.85;11.18;;;;;;;;;;4866996;29;20088;-53
2021/12/14 06:20:37;;;;;;;25.58;11.57;;;;;;;;;;4866239;29;20028;-52
2021/12/14 06:23:03;;;;;;;22.83;11.40;;;;;;;;;;4864333;29;20067;-54
2021/12/14 06:25:29;;;;;;;19.02;12.23;;;;;;;;;;4863597;29;20044;-51
2021/12/14 06:27:59;;;;;;;17.92;11.52;;;;;;;;;;4864798;29;20033;-51
2021/12/14 06:30:31;;;;;;;21.10;11.93;;;;;;;;;;4863749;29;20197;-54
2021/12/14 06:33:08;;;;;;;19.55;11.60;;;;;;;;;;4865365;29;20101;-53
2021/12/14 06:35:41;;;;;;;16.60;10.23;;;;;;;;;;4867657;29;20609;-55
2021/12/14 06:38:38;;;;;;;21.10;11.93;;;;;;;;;;4867464;29;20120;-56
2021/12/14 06:41:08;;;;;;;17.73;10.65;;;;;;;;;;4867735;29;20044;-57
2021/12/14 06:43:47;;;;;;;16.60;10.98;;;;;;;;;;4866084;29;20025;-57
2021/12/14 06:46:17;;;;;;;19.33;11.43;;;;;;;;;;4866776;29;20089;-56
2021/12/14 06:48:46;;;;;;;24.10;11.63;;;;;;;;;;4865920;29;20545;-53
2021/12/14 06:51:25;;;;;;;23.35;12.27;;;;;;;;;;4869256;29;20140;-53
2021/12/14 06:54:04;;;;;;;18.10;11.65;;;;;;;;;;4864605;29;20042;-53
2021/12/14 06:56:32;;;;;;;17.67;12.07;;;;;;;;;;4865259;29;20021;-52
2021/12/14 06:59:06;;;;;;;16.00;10.68;;;;;;;;;;4865344;29;20041;-52
2021/12/14 07:01:36;;;;;;;17.00;10.60;;;;;;;;;;4863999;29;20057;-52
2021/12/14 07:04:08;;;;;;;18.42;10.40;;;;;;;;;;4864134;29;20045;-53
2021/12/14 07:06:38;;;;;;;23.55;12.98;;;;;;;;;;4865025;29;20096;-55
2021/12/14 07:09:28;;;;;;;18.55;11.50;;;;;;;;;;4864510;29;20071;-51
2021/12/14 07:12:14;;;;;;;17.13;11.30;;;;;;;;;;4864396;29;20093;-54
2021/12/14 07:15:12;;;;;;;17.83;11.30;;;;;;;;;;4864278;29;20413;-51
2021/12/14 07:17:43;;;;;;;19.30;11.35;;;;;;;;;;4864967;29;20037;-55
2021/12/14 07:20:41;;;;;;;20.45;11.10;;;;;;;;;;4863749;29;20043;-56
2021/12/14 07:23:17;;;;;;;15.48;10.27;;;;;;;;;;4864713;29;20048;-55
2021/12/14 07:25:48;;;;;;;19.23;10.88;;;;;;;;;;4866009;29;20062;-54
2021/12/14 07:28:17;;;;;;;18.83;11.18;;;;;;;;;;4865032;29;20088;-52
2021/12/14 07:30:54;;;;;;;16.73;10.70;;;;;;;;;;4862851;29;20033;-52
2021/12/14 07:33:44;;;;;;;18.85;10.88;;;;;;;;;;4863229;29;20032;-53
2021/12/14 07:36:13;;;;;;;17.65;10.70;;;;;;;;;;4865356;29;20032;-54
2021/12/14 07:38:43;;;;;;;16.27;10.63;;;;;;;;;;4864514;29;20048;-50
2021/12/14 07:41:22;;;;;;;15.95;10.88;;;;;;;;;;4863710;29;20028;-53
2021/12/14 07:44:25;;;;;;;16.52;10.48;;;;;;;;;;4862667;29;20045;-53
2021/12/14 07:47:03;;;;;;;17.63;10.55;;;;;;;;;;4864489;29;20475;-52
2021/12/14 07:49:56;;;;;;;17.52;10.05;;;;;;;;;;4862856;29;20033;-51
2021/12/14 07:52:32;;;;;;;18.02;12.48;;;;;;;;;;4863852;29;20032;-51
2021/12/14 07:55:10;;;;;;;17.15;10.65;;;;;;;;;;4867754;29;20048;-52
2021/12/14 07:57:37;;;;;;;16.20;10.50;;;;;;;;;;4865507;29;20066;-54
2021/12/14 08:00:22;;;;;;;17.30;10.57;;;;;;;;;;4864792;29;20037;-53
2021/12/14 08:02:55;;;;;;;16.52;10.68;;;;;;;;;;4865373;29;20109;-54
2021/12/14 08:05:31;;;;;;;14.83;9.50;;;;;;;;;;4862683;29;20032;-54
2021/12/14 08:08:18;;;;;;;16.02;9.95;;;;;;;;;;4863860;29;20040;-55
2021/12/14 08:10:57;;;;;;;14.70;9.93;;;;;;;;;;4864450;29;20029;-52
2021/12/14 08:13:24;;;;;;;14.30;9.43;;;;;;;;;;4867960;29;20036;-52
2021/12/14 08:15:53;;;;;;;15.65;9.80;;;;;;;;;;4864987;29;20029;-53
2021/12/14 08:18:25;;;;;;;16.38;9.90;;;;;;;;;;4865540;29;20376;-55
2021/12/14 08:21:15;;;;;;;16.00;10.43;;;;;;;;;;4866014;29;20718;-54
2021/12/14 08:23:48;;;;;;;17.48;10.13;;;;;;;;;;4862549;29;20025;-52
2021/12/14 08:26:14;;;;;;;16.20;10.05;;;;;;;;;;4866033;29;20085;-52
2021/12/14 08:28:54;;;;;;;14.35;9.68;;;;;;;;;;4864226;29;20032;-51
2021/12/14 08:31:22;;;;;;;15.90;9.27;;;;;;;;;;4862170;29;20047;-53
2021/12/14 08:34:09;;;;;;;15.63;9.93;;;;;;;;;;4866883;29;20553;-53
2021/12/14 08:36:42;;;;;;;16.58;9.50;;;;;;;;;;4866662;29;20150;-52
2021/12/14 08:39:22;;;;;;;14.05;8.98;;;;;;;;;;4867497;29;20484;-53
2021/12/14 08:41:56;;;;;;;17.95;9.82;;;;;;;;;;4868477;29;20120;-54
2021/12/14 08:44:37;;;;;;;14.10;9.52;;;;;;;;;;4867168;29;20036;-51
2021/12/14 08:47:09;;;;;;;12.20;8.85;;;;;;;;;;4867771;29;20025;-56
2021/12/14 08:49:36;;;;;;;13.52;9.48;;;;;;;;;;4869393;29;20070;-53
2021/12/14 08:52:03;;;;;;;17.00;9.43;;;;;;;;;;4867079;29;20489;-51
2021/12/14 08:54:31;;;;;;;14.70;9.50;;;;;;;;;;4866909;29;21404;-50
2021/12/14 08:57:04;;;;;;;19.25;9.93;;;;;;;;;;4866072;29;20155;-56
2021/12/14 08:59:31;;;;;;;15.52;9.20;;;;;;;;;;4867925;29;20037;-55
2021/12/14 09:01:58;;;;;;;16.65;10.18;;;;;;;;;;4865310;29;20096;-54
2021/12/14 09:04:32;;;;;;;14.70;9.63;;;;;;;;;;4866083;29;20060;-53
2021/12/14 09:07:02;;;;;;;28.23;16.30;;;;;;;;;;4863569;29;20033;-51
2021/12/14 09:09:28;;;;;;;16.42;10.27;;;;;;;;;;4867181;29;20439;-52
2021/12/14 09:12:18;;;;;;;15.82;10.45;;;;;;;;;;4866878;29;20037;-53
2021/12/14 09:14:46;;;;;;;20.05;9.88;;;;;;;;;;4863353;29;20490;-51
2021/12/14 09:17:14;;;;;;;16.25;10.02;;;;;;;;;;4866106;29;20084;-54
2021/12/14 09:19:45;;;;;;;16.08;9.70;;;;;;;;;;4868338;29;20096;-53
2021/12/14 09:22:18;;;;;;;15.57;10.50;;;;;;;;;;4865311;29;20033;-50
2021/12/14 09:24:44;;;;;;;16.27;10.90;;;;;;;;;;4868081;29;20057;-54
2021/12/14 09:27:20;;;;;;;16.20;10.27;;;;;;;;;;4866203;29;20029;-54
2021/12/14 09:29:46;;;;;;;15.70;10.32;;;;;;;;;;4867792;29;20076;-51
2021/12/14 09:32:17;;;;;;;16.10;10.52;;;;;;;;;;4866089;29;20045;-52
2021/12/14 09:34:44;;;;;;;15.35;10.23;;;;;;;;;;4867893;29;20058;-54
2021/12/14 09:37:14;;;;;;;16.08;10.18;;;;;;;;;;4866484;29;20059;-52
2021/12/14 09:39:47;;;;;;;16.65;9.43;;;;;;;;;;4868612;29;20112;-53
2021/12/14 09:42:18;;;;;;;16.35;10.75;;;;;;;;;;4867107;29;20055;-52
2021/12/14 09:44:46;;;;;;;15.05;10.63;;;;;;;;;;4864601;29;20053;-51
2021/12/14 09:47:25;;;;;;;14.95;10.30;;;;;;;;;;4866412;29;20359;-51
2021/12/14 09:49:51;;;;;;;17.65;9.98;;;;;;;;;;4864141;29;20041;-51
2021/12/14 09:52:22;;;;;;;18.65;10.52;;;;;;;;;;4865404;29;20043;-53
2021/12/14 09:54:48;;;;;;;14.73;9.48;;;;;;;;;;4864653;29;20041;-55
2021/12/14 09:57:20;;;;;;;20.10;10.93;;;;;;;;;;4865575;29;20451;-55
2021/12/14 09:59:51;;;;;;;14.82;10.40;;;;;;;;;;4866505;29;20032;-51
2021/12/14 10:02:23;;;;;;;15.85;10.23;;;;;;;;;;4865563;29;20033;-52
2021/12/14 10:04:52;;;;;;;15.25;10.02;;;;;;;;;;4865828;29;21227;-52
2021/12/14 10:07:19;;;;;;;16.63;10.65;;;;;;;;;;4864198;29;20561;-53
2021/12/14 10:09:47;;;;;;;16.13;10.25;;;;;;;;;;4865118;29;20586;-54
2021/12/14 10:12:51;;;;;;;15.70;10.25;;;;;;;;;;4863469;29;20059;-56
2021/12/14 10:15:29;;;;;;;15.98;10.23;;;;;;;;;;4864946;29;20507;-53
2021/12/14 10:17:57;;;;;;;17.98;10.05;;;;;;;;;;4866398;29;20044;-53
2021/12/14 10:20:34;;;;;;;15.27;10.13;;;;;;;;;;4864245;29;20075;-53
2021/12/14 10:23:00;;;;;;;17.38;9.73;;;;;;;;;;4865862;29;20370;-54
2021/12/14 10:25:27;;;;;;;14.70;9.30;;;;;;;;;;4865794;29;20036;-53
2021/12/14 10:27:54;;;;;;;16.33;10.48;;;;;;;;;;4866180;29;20037;-51
2021/12/14 10:30:30;;;;;;;13.70;9.63;;;;;;;;;;4867537;29;20025;-51
2021/12/14 10:32:57;;;;;;;16.33;10.43;;;;;;;;;;4863286;29;20060;-53
2021/12/14 10:35:29;;;;;;;19.92;10.88;;;;;;;;;;4865027;29;20045;-52
2021/12/14 10:38:11;;;;;;;17.25;10.52;;;;;;;;;;4865255;29;20033;-54
2021/12/14 10:43:27;;;;;;;21.23;11.13;;;;;;;;;;4865798;29;20095;-52
2021/12/14 10:46:07;;;;;;;15.15;9.95;;;;;;;;;;4865686;29;20020;-53
2021/12/14 10:48:37;;;;;;;20.17;10.48;;;;;;;;;;4867575;29;20069;-52
2021/12/14 10:51:07;;;;;;;15.38;9.88;;;;;;;;;;4862257;29;20033;-55
2021/12/14 10:53:33;;;;;;;16.85;10.38;;;;;;;;;;4867595;29;20089;-51
2021/12/14 10:56:09;;;;;;;16.35;10.93;;;;;;;;;;4865686;29;20034;-51
2021/12/14 10:58:35;;;;;;;19.52;10.70;;;;;;;;;;4868270;29;20108;-53
2021/12/14 11:01:11;;;;;;;14.80;10.13;;;;;;;;;;4864711;29;20028;-54
2021/12/14 11:03:44;;;;;;;16.23;10.32;;;;;;;;;;4866971;29;20465;-54
2021/12/14 11:06:13;;;;;;;16.73;10.23;;;;;;;;;;4867288;29;20033;-52
2021/12/14 11:08:58;;;;;;;15.68;9.98;;;;;;;;;;4863949;29;20185;-51
2021/12/14 11:11:36;;;;;;;19.63;10.02;;;;;;;;;;4866397;29;20044;-52
2021/12/14 11:14:06;;;;;;;15.68;10.05;;;;;;;;;;4864476;29;20033;-56
2021/12/14 11:19:35;;;;;;;15.98;9.20;;;;;;;;;;4865626;29;20052;-52
2021/12/14 11:22:14;;;;;;;16.45;9.88;;;;;;;;;;4865869;29;20064;-55
2021/12/14 11:24:42;;;;;;;14.68;9.60;;;;;;;;;;4863179;29;20117;-53
2021/12/14 11:27:18;;;;;;;15.15;9.77;;;;;;;;;;4865313;29;20026;-55
2021/12/14 11:29:44;;;;;;;15.52;10.13;;;;;;;;;;4867760;29;20410;-53
2021/12/14 11:32:19;;;;;;;16.10;10.07;;;;;;;;;;4865018;29;20127;-56
2021/12/14 11:34:46;;;;;;;16.08;9.70;;;;;;;;;;4864901;29;20115;-51
2021/12/14 11:37:16;;;;;;;15.82;9.90;;;;;;;;;;4862223;29;20029;-53
2021/12/14 11:39:49;;;;;;;15.77;10.00;;;;;;;;;;4863372;29;20100;-52
2021/12/14 11:42:18;;;;;;;16.05;9.48;;;;;;;;;;4865656;29;20033;-54
2021/12/14 11:44:47;;;;;;;16.77;10.30;;;;;;;;;;4864867;29;20032;-54
2021/12/14 11:47:33;;;;;;;15.75;10.00;;;;;;;;;;4863389;29;20060;-49
2021/12/14 11:50:04;;;;;;;13.52;9.68;;;;;;;;;;4863924;29;20125;-53
2021/12/14 11:52:51;;;;;;;14.20;9.82;;;;;;;;;;4864220;29;20041;-55
2021/12/14 11:55:20;;;;;;;16.00;10.30;;;;;;;;;;4865483;29;20131;-51
2021/12/14 11:57:45;;;;;;;16.45;10.00;;;;;;;;;;4867900;29;20036;-53
2021/12/14 12:00:20;;;;;;;17.10;10.52;;;;;;;;;;4864810;29;20033;-49
2021/12/14 12:02:45;;;;;;;18.05;10.27;;;;;;;;;;4867048;29;20413;-52
2021/12/14 12:05:20;;;;;;;12.75;9.02;;;;;;;;;;4866845;29;20032;-51
2021/12/14 12:10:42;;;;;;;11.98;7.22;;;;;;;;;;4869886;29;20100;-50
2021/12/14 12:13:08;;;;;;;10.88;7.13;;;;;;;;;;4868188;29;20097;-53
2021/12/14 12:15:39;;;;;;;10.50;6.72;;;;;;;;;;4868451;29;20125;-55
2021/12/14 12:18:04;;;;;;;13.73;7.10;;;;;;;;;;4866739;29;20483;-50
2021/12/14 12:20:41;;;;;;;12.65;6.50;;;;;;;;;;4866708;29;20090;-54
2021/12/14 12:23:15;;;;;;;10.98;6.00;;;;;;;;;;4867632;29;20039;-50
2021/12/14 12:25:46;;;;;;;8.43;5.22;;;;;;;;;;4865691;29;20040;-51
2021/12/14 12:28:25;;;;;;;8.63;5.05;;;;;;;;;;4870081;29;20056;-57
2021/12/14 12:31:10;;;;;;;10.15;4.78;;;;;;;;;;4868329;29;20124;-52
2021/12/14 12:33:40;;;;;;;8.35;4.18;;;;;;;;;;4869227;29;20116;-54
2021/12/14 12:36:30;;;;;;;8.05;4.35;;;;;;;;;;4866881;29;20025;-51
2021/12/14 12:39:15;;;;;;;6.82;4.25;;;;;;;;;;4867712;29;20037;-49
2021/12/14 12:41:48;;;;;;;7.72;4.40;;;;;;;;;;4869033;29;20040;-53
2021/12/14 12:44:25;;;;;;;6.82;3.50;;;;;;;;;;4867050;29;20036;-51
2021/12/14 12:47:00;;;;;;;7.15;3.92;;;;;;;;;;4868044;29;20132;-54
2021/12/14 12:49:28;;;;;;;6.72;3.35;;;;;;;;;;4866758;29;20075;-53
2021/12/14 12:51:57;;;;;;;4.40;3.10;;;;;;;;;;4865607;29;20059;-51
2021/12/14 12:54:59;;;;;;;4.93;3.15;;;;;;;;;;4866506;29;20528;-52
2021/12/14 12:57:54;;;;;;;5.90;3.53;;;;;;;;;;4868090;29;20240;-55
2021/12/14 13:00:57;;;;;;;6.28;2.85;;;;;;;;;;4866949;29;20045;-53
2021/12/14 13:03:30;;;;;;;5.07;2.70;;;;;;;;;;4856848;29;20070;-53
2021/12/14 13:06:04;;;;;;;;;;;;;;;;;;4867918;29;20068;-48
2021/12/14 13:08:43;;;;;;;3.92;2.15;;;;;;;;;;4867943;29;19920;-54
2021/12/14 13:11:16;;;;;;;5.55;2.28;;;;;;;;;;4868613;29;20037;-52
2021/12/14 13:14:10;;;;;;;4.93;2.40;;;;;;;;;;4882028;29;20040;-52
2021/12/14 13:16:39;;;;;;;6.38;2.60;;;;;;;;;;4869367;29;20047;-51
2021/12/14 13:19:13;;;;;;;3.47;2.30;;;;;;;;;;4866993;29;20135;-51
2021/12/14 13:21:57;;;;;;;3.17;1.88;;;;;;;;;;4868629;29;20058;-53
2021/12/14 13:24:52;;;;;;;6.45;2.20;;;;;;;;;;4865024;29;20044;-51
2021/12/14 13:27:21;;;;;;;5.28;2.60;;;;;;;;;;4859758;29;21110;-51
2021/12/14 13:29:51;;;;;;;3.45;2.08;;;;;;;;;;4865422;29;20112;-50
2021/12/14 13:32:26;;;;;;;4.45;2.25;;;;;;;;;;4868560;29;20142;-52
2021/12/14 13:35:15;;;;;;;5.80;1.90;;;;;;;;;;4868271;29;20037;-51
2021/12/14 13:37:51;;;;;;;2.72;1.92;;;;;;;;;;4869750;29;21069;-52
2021/12/14 13:40:23;;;;;;;2.80;2.03;;;;;;;;;;4867168;29;20029;-50
2021/12/14 13:43:07;;;;;;;2.67;2.00;;;;;;;;;;4865393;29;20116;-53
2021/12/14 13:45:36;;;;;;;4.85;2.50;;;;;;;;;;4865430;29;20033;-53
2021/12/14 13:48:06;;;;;;;10.07;2.50;;;;;;;;;;4864921;29;20029;-51
2021/12/14 13:50:40;;;;;;;4.57;2.63;;;;;;;;;;4865842;29;20089;-51
2021/12/14 13:53:07;;;;;;;5.05;2.80;;;;;;;;;;4865005;29;20024;-50
2021/12/14 13:55:40;;;;;;;4.90;3.38;;;;;;;;;;4864716;29;20531;-51
2021/12/14 13:58:34;;;;;;;5.40;3.08;;;;;;;;;;4866767;29;20028;-52
2021/12/14 14:01:06;;;;;;;11.65;3.33;;;;;;;;;;4866056;29;20037;-55
2021/12/14 14:03:37;;;;;;;6.55;3.60;;;;;;;;;;4863080;29;20033;-52
2021/12/14 14:06:06;;;;;;;8.93;3.17;;;;;;;;;;4864354;29;20029;-53
2021/12/14 14:08:42;;;;;;;5.68;2.70;;;;;;;;;;4862606;29;20052;-51
2021/12/14 14:11:17;;;;;;;3.22;2.42;;;;;;;;;;4860659;29;20037;-54
2021/12/14 14:13:42;;;;;;;2.65;2.30;;;;;;;;;;4864643;29;20065;-53
2021/12/14 14:16:09;;;;;;;3.08;2.10;;;;;;;;;;4865589;29;20060;-55
2021/12/14 14:18:38;;;;;;;3.40;2.67;;;;;;;;;;4864531;29;20041;-56
2021/12/14 14:21:07;;;;;;;4.07;2.75;;;;;;;;;;4867268;29;20065;-51
2021/12/14 14:23:38;;;;;;;5.43;3.10;;;;;;;;;;4859029;29;20588;-51
2021/12/14 14:26:14;;;;;;;4.85;3.20;;;;;;;;;;4864425;29;20048;-52
2021/12/14 14:28:46;;;;;;;5.55;3.00;;;;;;;;;;4864776;29;20514;-53
2021/12/14 14:31:29;;;;;;;6.22;3.15;;;;;;;;;;4864340;29;20043;-50
2021/12/14 14:33:56;;;;;;;4.63;2.83;;;;;;;;;;4864267;29;20029;-50
2021/12/14 14:36:26;;;;;;;5.60;3.33;;;;;;;;;;4863989;29;20044;-55
2021/12/14 14:39:01;;;;;;;7.18;2.47;;;;;;;;;;4862386;29;20048;-52
2021/12/14 14:41:31;;;;;;;5.50;2.95;;;;;;;;;;4863311;29;20044;-50
2021/12/14 14:44:21;;;;;;;4.45;2.72;;;;;;;;;;4864574;29;20037;-52
2021/12/14 14:46:51;;;;;;;3.22;2.70;;;;;;;;;;4862520;29;20041;-53
2021/12/14 14:49:23;;;;;;;4.45;3.20;;;;;;;;;;4865029;29;21459;-50
2021/12/14 14:52:00;;;;;;;3.97;2.80;;;;;;;;;;5038718;28;20416;-56
2021/12/14 14:54:35;;;;;;;3.30;2.60;;;;;;;;;;5038494;28;20128;-56
2021/12/14 14:57:09;;;;;;;3.30;2.78;;;;;;;;;;5036796;28;20029;-56
2021/12/14 14:59:37;;;;;;;5.00;3.80;;;;;;;;;;5035395;28;20568;-56
2021/12/14 15:02:03;;;;;;;4.05;3.20;;;;;;;;;;5036077;28;20367;-57
2021/12/14 15:04:28;;;;;;;5.20;3.35;;;;;;;;;;5036534;28;20125;-56
2021/12/14 15:06:54;;;;;;;5.13;3.88;;;;;;;;;;5037881;28;20138;-54
2021/12/14 15:09:29;;;;;;;5.35;3.33;;;;;;;;;;5035583;28;20417;-55
2021/12/14 15:12:00;;;;;;;4.85;3.70;;;;;;;;;;5034875;28;20099;-57
2021/12/14 15:14:41;;;;;;;5.30;4.28;;;;;;;;;;5031436;28;20048;-57
2021/12/14 15:17:16;;;;;;;5.40;4.18;;;;;;;;;;5035998;28;20029;-57
2021/12/14 15:19:48;;;;;;;6.63;4.10;;;;;;;;;;5034863;28;20029;-57
2021/12/14 15:22:29;;;;;;;6.88;3.90;;;;;;;;;;5035520;28;20076;-56
2021/12/14 15:25:03;;;;;;;6.70;4.53;;;;;;;;;;5035669;28;21054;-56
2021/12/14 15:27:51;;;;;;;5.43;4.10;;;;;;;;;;5035116;28;20033;-57
2021/12/14 15:30:19;;;;;;;5.47;3.95;;;;;;;;;;5030782;28;20523;-56
2021/12/14 15:32:55;;;;;;;7.20;4.30;;;;;;;;;;5032900;28;20093;-53
2021/12/14 15:35:26;;;;;;;5.00;4.07;;;;;;;;;;5032922;28;20052;-54
2021/12/14 15:38:11;;;;;;;6.18;4.60;;;;;;;;;;5030653;28;20067;-56